createdAt,value
2018-12-26T00:02:07.138Z,-0.80
2018-12-26T00:07:08.393Z,-0.70
2018-12-26T00:12:09.632Z,-0.70
2018-12-26T00:17:10.891Z,-0.80
2018-12-26T00:22:12.135Z,-0.70
2018-12-26T00:27:13.382Z,-0.80
2018-12-26T00:32:14.623Z,-0.70
2018-12-26T00:37:15.870Z,-0.80
2018-12-26T00:42:17.109Z,-0.90
2018-12-26T00:47:18.348Z,-0.90
2018-12-26T00:52:19.609Z,-0.90
2018-12-26T00:57:20.827Z,-0.90
2018-12-26T01:02:22.065Z,-1.00
2018-12-26T01:07:23.305Z,-1.10
2018-12-26T01:12:24.553Z,-1.10
2018-12-26T01:17:25.810Z,-1.20
2018-12-26T01:22:27.066Z,-1.20
2018-12-26T01:27:28.317Z,-1.30
2018-12-26T01:32:29.560Z,-1.30
2018-12-26T01:37:30.793Z,-1.40
2018-12-26T01:42:32.027Z,-1.50
2018-12-26T01:47:33.301Z,-1.50
2018-12-26T01:52:34.529Z,-1.50
2018-12-26T01:57:35.776Z,-1.50
2018-12-26T02:02:37.004Z,-1.50
2018-12-26T02:07:38.239Z,-1.60
2018-12-26T02:12:39.495Z,-1.60
2018-12-26T02:17:40.775Z,-1.70
2018-12-26T02:22:42.011Z,-1.70
2018-12-26T02:27:43.248Z,-1.80
2018-12-26T02:32:44.579Z,-1.80
2018-12-26T02:37:45.810Z,-1.90
2018-12-26T02:42:47.062Z,-1.80
2018-12-26T02:47:48.294Z,-1.70
2018-12-26T02:52:49.727Z,-1.70
2018-12-26T02:57:50.948Z,-1.70
2018-12-26T03:02:52.218Z,-1.80
2018-12-26T03:07:53.446Z,-1.90
2018-12-26T03:12:54.931Z,-1.80
2018-12-26T03:17:56.163Z,-1.70
2018-12-26T03:22:57.402Z,-1.70
2018-12-26T03:27:58.672Z,-1.60
2018-12-26T03:32:59.895Z,-1.80
2018-12-26T03:38:01.108Z,-1.90
2018-12-26T03:43:02.543Z,-1.90
2018-12-26T03:48:03.794Z,-1.90
2018-12-26T03:53:05.218Z,-1.80
2018-12-26T03:58:06.546Z,-1.80
2018-12-26T04:03:08.019Z,-1.80
2018-12-26T04:08:09.250Z,-1.90
2018-12-26T04:13:10.592Z,-1.80
2018-12-26T04:18:11.863Z,-1.80
2018-12-26T04:23:13.440Z,-1.80
2018-12-26T04:28:14.725Z,-1.90
2018-12-26T04:33:15.960Z,-1.80
2018-12-26T04:38:17.213Z,-1.80
2018-12-26T04:43:18.462Z,-1.70
2018-12-26T04:48:19.699Z,-1.50
2018-12-26T04:53:20.935Z,-1.50
2018-12-26T04:58:22.180Z,-1.40
2018-12-26T05:03:23.511Z,-1.50
2018-12-26T05:08:24.743Z,-1.50
2018-12-26T05:13:26.153Z,-1.60
2018-12-26T05:18:27.403Z,-1.50
2018-12-26T05:23:28.643Z,-1.50
2018-12-26T05:28:29.908Z,-1.40
2018-12-26T05:33:31.143Z,-1.50
2018-12-26T05:38:32.379Z,-1.60
2018-12-26T05:43:33.606Z,-1.50
2018-12-26T05:48:34.832Z,-1.60
2018-12-26T05:53:36.069Z,-1.80
2018-12-26T05:58:37.298Z,-1.80
2018-12-26T06:03:38.545Z,-1.80
2018-12-26T06:08:39.776Z,-1.90
2018-12-26T06:13:41.012Z,-1.80
2018-12-26T06:18:42.240Z,-1.80
2018-12-26T06:23:43.473Z,-2.00
2018-12-26T06:28:44.713Z,-1.90
2018-12-26T06:33:45.935Z,-1.90
2018-12-26T06:38:47.177Z,-2.00
2018-12-26T06:43:48.408Z,-2.00
2018-12-26T06:48:49.657Z,-1.90
2018-12-26T06:53:50.891Z,-1.80
2018-12-26T06:58:52.125Z,-1.80
2018-12-26T07:03:53.374Z,-1.80
2018-12-26T07:08:54.606Z,-1.80
2018-12-26T07:13:55.824Z,-1.90
2018-12-26T07:18:57.073Z,-1.80
2018-12-26T07:23:58.314Z,-1.50
2018-12-26T07:29:00.995Z,-1.70
2018-12-26T07:34:03.479Z,-1.80
2018-12-26T07:39:05.545Z,-1.70
2018-12-26T07:44:06.787Z,-1.70
2018-12-26T07:49:08.059Z,-1.60
2018-12-26T07:54:09.300Z,-1.60
2018-12-26T07:59:10.527Z,-1.50
2018-12-26T08:04:11.760Z,-1.60
2018-12-26T08:09:13.129Z,-1.60
2018-12-26T08:14:14.365Z,-1.60
2018-12-26T08:19:15.601Z,-1.50
2018-12-26T08:24:16.858Z,-1.50
2018-12-26T08:29:18.084Z,-1.50
2018-12-26T08:34:19.331Z,-1.30
2018-12-26T08:39:20.564Z,-1.10
2018-12-26T08:44:21.806Z,-1.20
2018-12-26T08:49:23.148Z,-0.90
2018-12-26T08:54:24.398Z,-1.00
2018-12-26T08:59:25.632Z,-1.20
2018-12-26T09:04:26.894Z,-1.20
2018-12-26T09:09:28.145Z,-1.10
2018-12-26T09:14:29.384Z,-1.00
2018-12-26T09:19:30.636Z,-0.70
2018-12-26T09:24:31.896Z,-0.70
2018-12-26T09:29:33.131Z,-0.30
2018-12-26T09:34:34.363Z,-0.60
2018-12-26T09:39:35.612Z,-0.90
2018-12-26T09:44:36.866Z,-0.90
2018-12-26T09:49:38.171Z,-1.10
2018-12-26T09:54:39.425Z,-1.20
2018-12-26T09:59:40.656Z,-1.30
2018-12-26T10:04:41.911Z,-1.20
2018-12-26T10:09:43.159Z,-1.20
2018-12-26T10:14:44.412Z,-1.00
2018-12-26T10:19:45.650Z,-1.00
2018-12-26T10:24:46.909Z,-0.90
2018-12-26T10:29:48.153Z,-0.90
2018-12-26T10:34:49.599Z,-0.80
2018-12-26T10:39:50.930Z,-0.70
2018-12-26T10:44:52.285Z,-0.70
2018-12-26T10:49:53.630Z,-0.60
2018-12-26T10:54:54.970Z,-0.50
2018-12-26T10:59:56.409Z,-0.40
2018-12-26T11:04:57.743Z,-0.30
2018-12-26T11:09:59.220Z,-0.40
2018-12-26T11:15:00.462Z,-0.50
2018-12-26T11:20:06.818Z,-0.30
2018-12-26T11:25:08.114Z,-0.50
2018-12-26T11:30:09.951Z,-0.30
2018-12-26T11:35:11.202Z,-0.40
2018-12-26T11:40:12.457Z,-0.50
2018-12-26T11:45:13.714Z,-0.60
2018-12-26T11:50:14.953Z,-0.60
2018-12-26T11:55:16.302Z,-0.40
2018-12-26T12:00:17.564Z,-0.50
2018-12-26T12:05:18.843Z,-0.20
2018-12-26T12:10:20.600Z,-0.30
2018-12-26T12:15:21.972Z,-0.30
2018-12-26T12:20:23.440Z,-0.20
2018-12-26T12:25:24.726Z,-0.30
2018-12-26T12:30:25.982Z,-0.30
2018-12-26T12:35:27.448Z,-0.20
2018-12-26T12:40:28.779Z,-0.30
2018-12-26T12:45:30.320Z,-0.40
2018-12-26T12:50:31.561Z,-0.30
2018-12-26T12:55:32.914Z,-0.20
2018-12-26T13:00:34.593Z,-0.20
2018-12-26T13:05:35.878Z,-0.30
2018-12-26T13:10:37.123Z,0.00
2018-12-26T13:15:38.399Z,0.10
2018-12-26T13:20:39.681Z,0.10
2018-12-26T13:25:41.023Z,0.20
2018-12-26T13:30:42.291Z,0.10
2018-12-26T13:35:43.578Z,0.00
2018-12-26T13:40:44.822Z,-0.10
2018-12-26T13:45:46.070Z,-0.20
2018-12-26T13:50:47.311Z,-0.20
2018-12-26T13:55:48.591Z,-0.10
2018-12-26T14:00:49.954Z,-0.10
2018-12-26T14:05:51.199Z,0.00
2018-12-26T14:10:52.462Z,-0.10
2018-12-26T14:15:53.738Z,0.00
2018-12-26T14:20:55.847Z,0.00
2018-12-26T14:25:57.111Z,-0.10
2018-12-26T14:30:58.357Z,-0.10
2018-12-26T14:35:59.652Z,-0.20
2018-12-26T14:41:00.891Z,0.00
2018-12-26T14:46:02.363Z,0.00
2018-12-26T14:51:03.630Z,-0.10
2018-12-26T14:56:04.868Z,0.00
2018-12-26T15:01:06.134Z,0.00
2018-12-26T15:06:07.376Z,0.00
2018-12-26T15:11:08.598Z,-0.10
2018-12-26T15:16:09.869Z,-0.10
2018-12-26T15:21:11.131Z,-0.20
2018-12-26T15:26:12.379Z,-0.20
2018-12-26T15:31:13.643Z,-0.30
2018-12-26T15:36:15.016Z,-0.40
2018-12-26T15:41:16.306Z,-0.40
2018-12-26T15:46:17.583Z,-0.20
2018-12-26T15:51:18.824Z,-0.30
2018-12-26T15:56:20.079Z,-0.30
2018-12-26T16:01:21.339Z,-0.20
2018-12-26T16:06:22.568Z,-0.10
2018-12-26T16:11:23.825Z,0.20
2018-12-26T16:16:25.074Z,0.10
2018-12-26T16:21:26.320Z,0.10
2018-12-26T16:26:27.579Z,0.00
2018-12-26T16:31:28.813Z,0.10
2018-12-26T16:36:30.066Z,0.20
2018-12-26T16:41:31.324Z,0.10
2018-12-26T16:46:32.697Z,0.10
2018-12-26T16:51:34.061Z,0.00
2018-12-26T16:56:35.428Z,0.10
2018-12-26T17:01:36.684Z,0.10
2018-12-26T17:06:37.962Z,0.10
2018-12-26T17:11:39.219Z,0.10
2018-12-26T17:16:40.480Z,0.20
2018-12-26T17:21:41.738Z,0.10
2018-12-26T17:26:43.002Z,0.10
2018-12-26T17:31:44.228Z,0.10
2018-12-26T17:36:45.500Z,0.10
2018-12-26T17:41:46.851Z,0.20
2018-12-26T17:46:48.109Z,0.10
2018-12-26T17:51:49.356Z,0.20
2018-12-26T17:56:53.425Z,0.10
2018-12-26T18:02:12.448Z,0.10
2018-12-26T18:07:13.739Z,0.10
2018-12-26T18:12:15.004Z,0.10
2018-12-26T18:17:16.258Z,0.00
2018-12-26T18:22:17.527Z,0.00
2018-12-26T18:27:18.772Z,0.10
2018-12-26T18:32:20.024Z,0.10
2018-12-26T18:37:21.279Z,0.10
2018-12-26T18:42:22.534Z,0.10
2018-12-26T18:47:23.776Z,0.10
2018-12-26T18:52:25.054Z,0.10
2018-12-26T18:57:26.301Z,0.20
2018-12-26T19:02:27.585Z,0.00
2018-12-26T19:07:28.972Z,0.00
2018-12-26T19:12:30.410Z,0.10
2018-12-26T19:17:31.653Z,0.10
2018-12-26T19:22:32.910Z,0.10
2018-12-26T19:27:34.166Z,0.10
2018-12-26T19:32:35.425Z,0.00
2018-12-26T19:37:36.692Z,0.00
2018-12-26T19:42:37.978Z,-0.10
2018-12-26T19:47:39.247Z,-0.10
2018-12-26T19:52:40.508Z,-0.20
2018-12-26T19:57:41.793Z,-0.10
2018-12-26T20:02:43.054Z,-0.20
2018-12-26T20:07:44.335Z,-0.30
2018-12-26T20:12:45.580Z,-0.20
2018-12-26T20:17:46.931Z,-0.20
2018-12-26T20:22:48.210Z,-0.10
2018-12-26T20:27:49.461Z,-0.20
2018-12-26T20:32:50.744Z,-0.20
2018-12-26T20:37:51.980Z,-0.20
2018-12-26T20:42:53.233Z,-0.30
2018-12-26T20:47:54.491Z,-0.30
2018-12-26T20:52:55.782Z,-0.30
2018-12-26T20:57:57.048Z,-0.20
2018-12-26T21:02:58.326Z,-0.20
2018-12-26T21:07:59.598Z,-0.20
2018-12-26T21:13:00.857Z,-0.20
2018-12-26T21:18:02.155Z,-0.20
2018-12-26T21:23:03.488Z,-0.20
2018-12-26T21:28:04.779Z,-0.20
2018-12-26T21:33:06.040Z,-0.20
2018-12-26T21:38:07.306Z,-0.20
2018-12-26T21:43:08.582Z,-0.30
2018-12-26T21:48:09.947Z,-0.30
2018-12-26T21:53:11.190Z,-0.30
2018-12-26T21:58:12.446Z,-0.40
2018-12-26T22:03:13.709Z,-0.40
2018-12-26T22:08:14.969Z,-0.40
2018-12-26T22:13:16.241Z,-0.50
2018-12-26T22:18:17.476Z,-0.50
2018-12-26T22:23:18.739Z,-0.50
2018-12-26T22:28:20.037Z,-0.50
2018-12-26T22:33:21.420Z,-0.40
2018-12-26T22:38:22.709Z,-0.50
2018-12-26T22:43:23.995Z,-0.50
2018-12-26T22:48:25.249Z,-0.60
2018-12-26T22:53:26.506Z,-0.50
2018-12-26T22:58:27.773Z,-0.40
2018-12-26T23:03:29.003Z,-0.60
2018-12-26T23:08:30.264Z,-0.60
2018-12-26T23:13:31.543Z,-0.50
2018-12-26T23:18:32.809Z,-0.60
2018-12-26T23:23:34.058Z,-0.50
2018-12-26T23:28:35.346Z,-0.50
2018-12-26T23:33:36.596Z,-0.60
2018-12-26T23:38:37.852Z,-0.70
2018-12-26T23:43:39.089Z,-0.60
2018-12-26T23:48:40.337Z,-0.70
2018-12-26T23:53:41.569Z,-0.70
2018-12-26T23:58:42.922Z,-0.70
